createdAt,value
2022-10-08T00:01:36.487Z,13.15
2022-10-08T00:04:22.038Z,13.10
2022-10-08T00:07:07.625Z,11.98
2022-10-08T00:09:53.237Z,13.68
2022-10-08T00:12:38.875Z,13.15
2022-10-08T00:15:24.279Z,12.30
2022-10-08T00:18:10.413Z,12.07
2022-10-08T00:21:07.250Z,12.25
2022-10-08T00:23:53.246Z,11.93
2022-10-08T00:26:43.653Z,11.88
2022-10-08T00:29:29.221Z,12.43
2022-10-08T00:32:14.825Z,10.75
2022-10-08T00:35:00.509Z,10.70
2022-10-08T00:37:46.227Z,13.32
2022-10-08T00:40:31.995Z,12.30
2022-10-08T00:43:17.451Z,13.13
2022-10-08T00:46:04.498Z,13.40
2022-10-08T00:48:54.455Z,12.32
2022-10-08T00:51:52.511Z,12.43
2022-10-08T00:54:38.189Z,12.57
2022-10-08T00:57:23.683Z,13.43
2022-10-08T01:00:17.235Z,12.77
2022-10-08T01:02:49.059Z,13.98
2022-10-08T01:05:40.314Z,13.85
2022-10-08T01:08:38.188Z,14.35
2022-10-08T01:11:59.120Z,13.85
2022-10-08T01:15:00.411Z,14.45
2022-10-08T01:18:17.397Z,14.73
2022-10-08T01:21:24.187Z,15.65
2022-10-08T01:24:24.045Z,15.02
2022-10-08T01:27:33.362Z,15.00
2022-10-08T01:30:20.058Z,14.23
2022-10-08T01:33:42.908Z,13.98
2022-10-08T01:36:35.573Z,14.10
2022-10-08T01:39:25.467Z,16.77
2022-10-08T01:42:11.795Z,16.17
2022-10-08T01:45:02.186Z,16.65
2022-10-08T01:47:49.609Z,17.13
2022-10-08T01:50:44.385Z,16.73
2022-10-08T01:53:36.727Z,16.02
2022-10-08T01:56:27.690Z,16.13
2022-10-08T01:59:20.849Z,15.75
2022-10-08T02:02:13.656Z,17.80
2022-10-08T02:04:59.264Z,18.52
2022-10-08T02:07:44.916Z,16.25
2022-10-08T02:10:31.455Z,16.98
2022-10-08T02:13:17.020Z,17.88
2022-10-08T02:16:08.342Z,17.23
2022-10-08T02:19:21.823Z,16.20
2022-10-08T02:22:07.712Z,17.67
2022-10-08T02:25:00.186Z,16.30
2022-10-08T02:28:02.162Z,17.50
2022-10-08T02:30:58.607Z,16.75
2022-10-08T02:34:07.010Z,18.65
2022-10-08T02:37:16.447Z,17.08
2022-10-08T02:40:08.561Z,17.85
2022-10-08T02:43:00.168Z,17.13
2022-10-08T02:46:09.851Z,17.08
2022-10-08T02:49:01.171Z,15.68
2022-10-08T02:51:49.406Z,15.30
2022-10-08T02:54:38.952Z,14.98
2022-10-08T02:57:33.699Z,15.70
2022-10-08T03:00:19.517Z,16.23
2022-10-08T03:03:16.747Z,15.90
2022-10-08T03:06:06.748Z,17.65
2022-10-08T03:08:55.271Z,17.55
2022-10-08T03:11:41.236Z,17.25
2022-10-08T03:14:28.705Z,18.73
2022-10-08T03:17:19.321Z,18.00
2022-10-08T03:20:07.271Z,17.27
2022-10-08T03:22:56.667Z,15.77
2022-10-08T03:25:41.995Z,15.45
2022-10-08T03:28:27.676Z,15.57
2022-10-08T03:31:13.282Z,15.40
2022-10-08T03:33:58.961Z,17.08
2022-10-08T03:36:44.217Z,17.70
2022-10-08T03:39:30.062Z,16.77
2022-10-08T03:42:15.562Z,18.35
2022-10-08T03:45:01.553Z,17.25
2022-10-08T03:47:51.722Z,17.00
2022-10-08T03:50:37.364Z,17.90
2022-10-08T03:53:24.155Z,17.05
2022-10-08T03:56:13.860Z,16.23
2022-10-08T03:59:00.709Z,16.40
2022-10-08T04:01:46.050Z,16.35
2022-10-08T04:04:31.422Z,16.23
2022-10-08T04:07:17.075Z,16.67
2022-10-08T04:10:02.547Z,16.27
2022-10-08T04:12:48.541Z,16.27
2022-10-08T04:15:34.370Z,16.77
2022-10-08T04:18:19.699Z,16.58
2022-10-08T04:21:08.144Z,17.10
2022-10-08T04:23:53.310Z,16.05
2022-10-08T04:26:39.001Z,16.17
2022-10-08T04:29:25.002Z,14.77
2022-10-08T04:32:10.322Z,16.08
2022-10-08T04:34:55.953Z,15.95
2022-10-08T04:37:41.431Z,15.55
2022-10-08T04:40:27.017Z,15.38
2022-10-08T04:43:12.813Z,16.10
2022-10-08T04:45:58.222Z,15.13
2022-10-08T04:48:54.458Z,15.32
2022-10-08T04:51:40.134Z,15.52
2022-10-08T04:54:25.726Z,14.75
2022-10-08T04:57:10.994Z,14.60
2022-10-08T05:00:16.969Z,13.73
2022-10-08T05:03:02.079Z,15.10
2022-10-08T05:05:47.551Z,13.35
2022-10-08T05:08:34.038Z,15.05
2022-10-08T05:11:23.044Z,14.25
2022-10-08T05:14:09.980Z,13.52
2022-10-08T05:16:55.604Z,13.52
2022-10-08T05:19:41.342Z,13.23
2022-10-08T05:22:26.855Z,12.82
2022-10-08T05:25:12.629Z,13.02
2022-10-08T05:27:58.702Z,13.52
2022-10-08T05:30:44.222Z,12.40
2022-10-08T05:33:29.806Z,13.48
2022-10-08T05:36:21.905Z,13.25
2022-10-08T05:39:07.790Z,14.35
2022-10-08T05:41:54.379Z,13.80
2022-10-08T05:44:43.474Z,13.30
2022-10-08T05:47:30.901Z,12.77
2022-10-08T05:50:16.470Z,12.88
2022-10-08T05:53:04.479Z,14.20
2022-10-08T05:56:00.117Z,13.82
2022-10-08T05:58:45.936Z,14.57
2022-10-08T06:01:32.955Z,14.43
2022-10-08T06:04:18.823Z,13.32
2022-10-08T06:07:04.139Z,15.05
2022-10-08T06:09:51.241Z,14.98
2022-10-08T06:12:36.848Z,13.98
2022-10-08T06:15:22.291Z,15.95
2022-10-08T06:18:07.814Z,15.40
2022-10-08T06:20:53.708Z,15.63
2022-10-08T06:23:44.532Z,15.82
2022-10-08T06:26:36.042Z,15.85
2022-10-08T06:29:22.518Z,14.98
2022-10-08T06:32:07.942Z,14.95
2022-10-08T06:34:53.886Z,13.40
2022-10-08T06:37:40.131Z,13.65
2022-10-08T06:40:25.664Z,14.85
2022-10-08T06:43:14.132Z,20.88
2022-10-08T06:46:04.731Z,16.90
2022-10-08T06:48:50.280Z,15.68
2022-10-08T06:51:35.982Z,15.35
2022-10-08T06:54:21.298Z,14.15
2022-10-08T06:57:07.059Z,15.02
2022-10-08T06:59:54.477Z,15.15
2022-10-08T07:02:40.148Z,15.43
2022-10-08T07:05:25.426Z,16.05
2022-10-08T07:08:11.053Z,21.25
2022-10-08T07:11:10.107Z,18.23
2022-10-08T07:13:56.583Z,15.05
2022-10-08T07:16:42.327Z,14.55
2022-10-08T07:19:28.251Z,14.60
2022-10-08T07:22:13.361Z,13.30
2022-10-08T07:24:59.037Z,12.80
2022-10-08T07:27:45.156Z,12.70
2022-10-08T07:30:32.964Z,13.45
2022-10-08T07:33:18.412Z,12.70
2022-10-08T07:36:12.498Z,11.82
2022-10-08T07:39:00.916Z,14.15
2022-10-08T07:41:46.789Z,12.30
2022-10-08T07:44:32.569Z,12.35
2022-10-08T07:47:18.069Z,12.05
2022-10-08T07:50:04.476Z,11.23
2022-10-08T07:52:50.020Z,10.52
2022-10-08T07:55:35.574Z,11.23
2022-10-08T07:58:20.985Z,11.38
2022-10-08T08:01:08.819Z,10.20
2022-10-08T08:03:57.463Z,10.73
2022-10-08T08:06:47.437Z,12.13
2022-10-08T08:09:33.035Z,12.73
2022-10-08T08:12:18.778Z,11.98
2022-10-08T08:15:04.255Z,10.70
2022-10-08T08:17:49.569Z,9.60
2022-10-08T08:20:35.087Z,10.38
2022-10-08T08:23:20.512Z,9.50
2022-10-08T08:26:09.442Z,10.18
2022-10-08T08:28:57.324Z,8.93
2022-10-08T08:31:45.399Z,9.20
2022-10-08T08:34:31.206Z,9.07
2022-10-08T08:37:16.915Z,7.55
2022-10-08T08:40:02.752Z,7.70
2022-10-08T08:42:55.115Z,8.93
2022-10-08T08:45:46.992Z,9.23
2022-10-08T08:48:38.006Z,8.10
2022-10-08T08:51:24.001Z,5.25
2022-10-08T08:54:09.808Z,3.75
2022-10-08T08:56:55.298Z,3.75
2022-10-08T08:59:45.682Z,4.00
2022-10-08T09:02:38.353Z,3.60
2022-10-08T09:05:26.068Z,3.55
2022-10-08T09:08:37.486Z,4.05
2022-10-08T09:11:24.374Z,3.45
2022-10-08T09:14:10.709Z,2.92
2022-10-08T09:16:57.032Z,3.90
2022-10-08T09:19:43.025Z,3.70
2022-10-08T09:22:38.258Z,3.17
2022-10-08T09:28:14.367Z,3.40
2022-10-08T09:31:24.426Z,2.97
2022-10-08T09:34:18.708Z,3.60
2022-10-08T09:37:05.296Z,3.60
2022-10-08T09:40:13.801Z,3.50
2022-10-08T09:43:14.613Z,3.55
2022-10-08T09:46:11.169Z,3.17
2022-10-08T09:48:56.674Z,4.40
2022-10-08T09:51:42.783Z,2.78
2022-10-08T09:54:32.971Z,3.20
2022-10-08T09:57:21.017Z,2.97
2022-10-08T10:00:07.840Z,2.67
2022-10-08T10:02:55.633Z,2.75
2022-10-08T10:05:41.518Z,2.85
2022-10-08T10:08:49.611Z,2.55
2022-10-08T10:11:48.052Z,2.50
2022-10-08T10:14:54.474Z,2.80
2022-10-08T10:18:02.767Z,2.72
2022-10-08T10:21:12.981Z,2.40
2022-10-08T10:24:29.166Z,2.53
2022-10-08T10:27:37.382Z,1.83
2022-10-08T10:30:26.997Z,2.45
2022-10-08T10:33:25.882Z,2.85
2022-10-08T10:36:17.226Z,2.10
2022-10-08T10:39:28.340Z,1.98
2022-10-08T10:42:25.652Z,2.17
2022-10-08T10:45:13.975Z,2.20
2022-10-08T10:48:00.563Z,1.77
2022-10-08T10:51:02.864Z,2.40
2022-10-08T10:54:12.941Z,2.00
2022-10-08T10:57:04.942Z,1.80
2022-10-08T11:00:10.968Z,1.85
2022-10-08T11:03:21.647Z,1.63
2022-10-08T11:06:27.065Z,1.70
2022-10-08T11:12:22.795Z,1.83
2022-10-08T11:15:23.126Z,1.90
2022-10-08T11:18:32.571Z,2.33
2022-10-08T11:21:29.954Z,1.60
2022-10-08T11:24:51.388Z,1.80
2022-10-08T11:27:39.890Z,2.00
2022-10-08T11:30:49.266Z,2.60
2022-10-08T11:33:36.739Z,1.60
2022-10-08T11:36:32.858Z,1.48
2022-10-08T11:39:52.678Z,1.67
2022-10-08T11:43:02.132Z,1.83
2022-10-08T11:45:49.804Z,2.83
2022-10-08T11:48:36.339Z,1.60
2022-10-08T11:51:21.930Z,1.55
2022-10-08T11:54:15.402Z,1.63
2022-10-08T11:57:21.425Z,1.95
2022-10-08T12:00:37.720Z,2.00
2022-10-08T12:03:37.190Z,2.10
2022-10-08T12:06:34.964Z,1.70
2022-10-08T12:09:25.368Z,2.03
2022-10-08T12:12:14.447Z,1.90
2022-10-08T12:14:59.959Z,1.83
2022-10-08T12:17:57.254Z,1.92
2022-10-08T12:20:44.872Z,2.30
2022-10-08T12:23:30.043Z,1.83
2022-10-08T12:26:16.615Z,1.92
2022-10-08T12:29:02.346Z,1.88
2022-10-08T12:32:00.436Z,2.05
2022-10-08T12:34:45.778Z,1.95
2022-10-08T12:37:46.867Z,1.90
2022-10-08T12:40:57.219Z,3.00
2022-10-08T12:44:04.179Z,2.40
2022-10-08T12:47:16.358Z,1.73
2022-10-08T12:50:46.773Z,1.88
2022-10-08T12:53:33.369Z,1.80
2022-10-08T12:56:26.337Z,2.05
2022-10-08T12:59:12.849Z,1.58
2022-10-08T13:01:58.630Z,1.90
2022-10-08T13:04:46.947Z,1.83
2022-10-08T13:07:34.543Z,2.10
2022-10-08T13:10:27.143Z,1.75
2022-10-08T13:13:32.875Z,2.10
2022-10-08T13:16:28.731Z,1.90
2022-10-08T13:19:19.455Z,1.58
2022-10-08T13:22:08.921Z,1.80
2022-10-08T13:24:54.503Z,1.50
2022-10-08T13:27:40.206Z,1.77
2022-10-08T13:30:29.157Z,1.80
2022-10-08T13:33:23.727Z,2.10
2022-10-08T13:36:09.882Z,1.48
2022-10-08T13:38:55.188Z,1.60
2022-10-08T13:41:40.962Z,1.60
2022-10-08T13:44:27.710Z,2.03
2022-10-08T13:47:15.652Z,2.20
2022-10-08T13:50:02.068Z,1.73
2022-10-08T13:52:56.665Z,2.00
2022-10-08T13:55:45.711Z,1.90
2022-10-08T13:58:32.843Z,2.10
2022-10-08T14:01:18.505Z,2.85
2022-10-08T14:04:04.133Z,1.95
2022-10-08T14:06:53.057Z,1.60
2022-10-08T14:09:39.390Z,3.05
2022-10-08T14:12:29.006Z,2.00
2022-10-08T14:15:16.329Z,1.80
2022-10-08T14:18:01.810Z,2.30
2022-10-08T14:20:51.046Z,3.05
2022-10-08T14:23:36.570Z,1.80
2022-10-08T14:26:22.879Z,2.15
2022-10-08T14:29:08.497Z,1.98
2022-10-08T14:31:53.921Z,1.23
2022-10-08T14:34:39.530Z,1.20
2022-10-08T14:37:25.236Z,1.33
2022-10-08T14:40:16.362Z,1.30
2022-10-08T14:43:01.692Z,1.60
2022-10-08T14:45:47.502Z,2.00
2022-10-08T14:48:32.714Z,1.95
2022-10-08T14:51:18.297Z,1.75
2022-10-08T14:54:06.901Z,1.50
2022-10-08T14:56:52.445Z,2.10
2022-10-08T14:59:40.372Z,2.30
2022-10-08T15:02:26.170Z,1.77
2022-10-08T15:05:11.467Z,1.55
2022-10-08T15:07:57.205Z,1.55
2022-10-08T15:10:42.833Z,1.60
2022-10-08T15:13:29.322Z,1.08
2022-10-08T15:16:15.053Z,2.13
2022-10-08T15:19:00.689Z,1.20
2022-10-08T15:21:46.215Z,3.30
2022-10-08T15:24:31.989Z,1.45
2022-10-08T15:27:20.847Z,1.55
2022-10-08T15:30:09.109Z,1.10
2022-10-08T15:32:54.753Z,2.38
2022-10-08T15:35:40.303Z,5.25
2022-10-08T15:38:25.849Z,1.17
2022-10-08T15:41:12.179Z,1.50
2022-10-08T15:44:13.535Z,1.50
2022-10-08T15:47:06.157Z,1.42
2022-10-08T15:49:51.909Z,1.67
2022-10-08T15:52:37.081Z,1.33
2022-10-08T15:55:22.884Z,1.50
2022-10-08T15:58:08.289Z,1.10
2022-10-08T16:00:53.847Z,1.13
2022-10-08T16:03:44.911Z,2.20
2022-10-08T16:06:35.313Z,1.75
2022-10-08T16:09:22.068Z,1.95
2022-10-08T16:12:07.521Z,3.03
2022-10-08T16:14:53.309Z,1.48
2022-10-08T16:17:39.109Z,1.38
2022-10-08T16:20:24.552Z,1.30
2022-10-08T16:23:10.110Z,1.40
2022-10-08T16:25:55.737Z,1.45
2022-10-08T16:28:41.561Z,1.60
2022-10-08T16:31:29.464Z,1.60
2022-10-08T16:34:17.972Z,1.73
2022-10-08T16:37:04.985Z,1.63
2022-10-08T16:39:50.679Z,1.83
2022-10-08T16:42:36.165Z,1.50
2022-10-08T16:45:21.639Z,2.67
2022-10-08T16:48:08.477Z,6.13
2022-10-08T16:50:54.031Z,5.60
2022-10-08T16:53:39.704Z,6.40
2022-10-08T16:56:29.813Z,4.88
2022-10-08T16:59:19.318Z,2.85
2022-10-08T17:02:04.647Z,2.08
2022-10-08T17:04:50.027Z,1.80
2022-10-08T17:07:35.494Z,2.08
2022-10-08T17:10:21.055Z,1.90
2022-10-08T17:13:06.869Z,1.90
2022-10-08T17:15:59.926Z,1.65
2022-10-08T17:18:45.687Z,1.20
2022-10-08T17:21:32.734Z,1.30
2022-10-08T17:24:18.098Z,1.05
2022-10-08T17:27:03.829Z,1.17
2022-10-08T17:29:50.028Z,1.25
2022-10-08T17:32:35.342Z,1.40
2022-10-08T17:35:20.745Z,1.40
2022-10-08T17:38:06.486Z,1.60
2022-10-08T17:40:52.196Z,4.45
2022-10-08T17:43:37.717Z,4.80
2022-10-08T17:46:29.357Z,3.05
2022-10-08T17:49:16.905Z,3.50
2022-10-08T17:52:02.260Z,2.20
2022-10-08T17:54:47.666Z,2.22
2022-10-08T17:57:33.278Z,2.60
2022-10-08T18:00:18.934Z,2.20
2022-10-08T18:03:04.528Z,2.97
2022-10-08T18:05:57.501Z,3.90
2022-10-08T18:08:43.318Z,2.67
2022-10-08T18:11:31.426Z,2.60
2022-10-08T18:14:17.389Z,2.17
2022-10-08T18:17:02.736Z,2.47
2022-10-08T18:19:48.426Z,3.30
2022-10-08T18:22:33.933Z,1.30
2022-10-08T18:25:19.574Z,1.52
2022-10-08T18:28:04.914Z,2.25
2022-10-08T18:30:50.577Z,1.67
2022-10-08T18:33:38.953Z,1.33
2022-10-08T18:36:27.023Z,1.70
2022-10-08T18:39:17.505Z,1.98
2022-10-08T18:42:03.284Z,1.63
2022-10-08T18:44:48.676Z,2.03
2022-10-08T18:47:34.240Z,1.67
2022-10-08T18:50:20.176Z,2.03
2022-10-08T18:53:05.486Z,1.70
2022-10-08T18:55:51.110Z,1.85
2022-10-08T18:58:38.175Z,1.60
2022-10-08T19:01:26.889Z,1.52
2022-10-08T19:04:15.597Z,1.70
2022-10-08T19:07:01.608Z,1.70
2022-10-08T19:09:46.908Z,2.03
2022-10-08T19:12:32.804Z,2.00
2022-10-08T19:15:18.428Z,2.00
2022-10-08T19:18:05.831Z,1.90
2022-10-08T19:20:51.687Z,2.83
2022-10-08T19:23:37.488Z,2.83
2022-10-08T19:26:23.444Z,2.90
2022-10-08T19:29:15.319Z,3.30
2022-10-08T19:32:00.753Z,3.28
2022-10-08T19:34:46.337Z,3.33
2022-10-08T19:37:32.234Z,3.92
2022-10-08T19:40:17.677Z,4.10
2022-10-08T19:43:04.265Z,4.20
2022-10-08T19:45:49.686Z,3.63
2022-10-08T19:48:35.925Z,3.95
2022-10-08T19:51:22.047Z,4.13
2022-10-08T19:54:08.201Z,3.83
2022-10-08T19:56:53.955Z,4.45
2022-10-08T19:59:40.438Z,3.88
2022-10-08T20:02:26.114Z,3.90
2022-10-08T20:05:11.649Z,3.75
2022-10-08T20:07:57.783Z,4.00
2022-10-08T20:10:43.420Z,4.20
2022-10-08T20:13:29.001Z,3.97
2022-10-08T20:16:25.148Z,4.00
2022-10-08T20:19:15.361Z,4.22
2022-10-08T20:22:01.633Z,4.15
2022-10-08T20:24:47.017Z,3.97
2022-10-08T20:27:32.621Z,3.80
2022-10-08T20:30:18.081Z,3.33
2022-10-08T20:33:03.771Z,3.83
2022-10-08T20:35:49.063Z,4.95
2022-10-08T20:38:34.738Z,5.35
2022-10-08T20:41:20.713Z,5.65
2022-10-08T20:44:06.459Z,6.30
2022-10-08T20:46:52.423Z,5.53
2022-10-08T20:49:37.969Z,5.93
2022-10-08T20:52:23.662Z,6.03
2022-10-08T20:55:09.555Z,5.32
2022-10-08T20:57:55.076Z,4.60
2022-10-08T21:00:40.722Z,4.65
2022-10-08T21:03:26.155Z,5.15
2022-10-08T21:06:17.751Z,4.93
2022-10-08T21:09:03.445Z,10.45
2022-10-08T21:11:48.870Z,8.02
2022-10-08T21:14:34.460Z,8.45
2022-10-08T21:17:19.782Z,6.88
2022-10-08T21:20:05.846Z,4.78
2022-10-08T21:22:51.822Z,5.50
2022-10-08T21:25:37.128Z,5.60
2022-10-08T21:28:22.784Z,5.03
2022-10-08T21:31:09.534Z,4.60
2022-10-08T21:33:55.954Z,4.53
2022-10-08T21:36:42.742Z,4.45
2022-10-08T21:39:28.179Z,4.35
2022-10-08T21:42:13.822Z,4.30
2022-10-08T21:44:59.709Z,4.68
2022-10-08T21:47:45.467Z,3.97
2022-10-08T21:50:35.870Z,4.00
2022-10-08T21:53:22.003Z,12.43
2022-10-08T21:56:10.662Z,14.95
2022-10-08T21:58:59.029Z,12.82
2022-10-08T22:01:50.746Z,13.30
2022-10-08T22:04:36.766Z,11.05
2022-10-08T22:07:22.480Z,11.40
2022-10-08T22:10:08.759Z,9.52
2022-10-08T22:12:54.773Z,7.93
2022-10-08T22:15:49.441Z,7.80
2022-10-08T22:18:36.141Z,6.30
2022-10-08T22:21:22.918Z,7.82
2022-10-08T22:24:08.397Z,8.02
2022-10-08T22:26:54.023Z,8.90
2022-10-08T22:29:39.235Z,10.02
2022-10-08T22:32:25.066Z,8.88
2022-10-08T22:35:10.971Z,7.50
2022-10-08T22:37:56.423Z,7.78
2022-10-08T22:40:42.037Z,6.63
2022-10-08T22:43:27.893Z,7.47
2022-10-08T22:46:16.621Z,7.53
2022-10-08T22:49:05.484Z,7.18
2022-10-08T22:51:50.833Z,7.28
2022-10-08T22:54:36.566Z,6.95
2022-10-08T22:57:22.243Z,7.97
2022-10-08T23:00:08.133Z,6.38
2022-10-08T23:02:53.582Z,7.75
2022-10-08T23:05:39.146Z,7.55
2022-10-08T23:08:25.211Z,6.97
2022-10-08T23:11:11.488Z,7.28
2022-10-08T23:13:58.537Z,7.07
2022-10-08T23:16:44.067Z,6.20
2022-10-08T23:19:29.463Z,5.18
2022-10-08T23:22:15.029Z,4.35
2022-10-08T23:25:00.754Z,3.67
2022-10-08T23:27:46.051Z,3.47
2022-10-08T23:30:43.052Z,3.53
2022-10-08T23:33:29.350Z,3.17
2022-10-08T23:36:18.170Z,3.28
2022-10-08T23:39:05.350Z,3.80
2022-10-08T23:41:50.538Z,3.38
2022-10-08T23:44:36.148Z,4.00
2022-10-08T23:47:21.316Z,3.28
2022-10-08T23:50:07.475Z,3.75
2022-10-08T23:52:52.735Z,3.22
2022-10-08T23:55:38.333Z,3.60
2022-10-08T23:58:24.304Z,3.97
